createdAt,value
2024-04-24T00:02:05.925Z,99740.00
2024-04-24T00:04:36.574Z,99736.60
2024-04-24T00:07:07.186Z,99736.00
2024-04-24T00:09:38.055Z,99727.80
2024-04-24T00:12:09.003Z,99717.00
2024-04-24T00:14:39.667Z,99715.60
2024-04-24T00:17:11.401Z,99706.80
2024-04-24T00:19:42.162Z,99705.00
2024-04-24T00:22:12.781Z,99701.20
2024-04-24T00:24:43.430Z,99702.80
2024-04-24T00:27:14.336Z,99700.00
2024-04-24T00:29:44.905Z,99702.40
2024-04-24T00:32:15.825Z,99698.60
2024-04-24T00:34:46.487Z,99697.60
2024-04-24T00:37:17.232Z,99695.60
2024-04-24T00:39:47.818Z,99692.60
2024-04-24T00:42:22.374Z,99690.00
2024-04-24T00:44:53.081Z,99690.00
2024-04-24T00:47:24.083Z,99685.80
2024-04-24T00:49:54.853Z,99685.20
2024-04-24T00:52:26.047Z,99681.60
2024-04-24T00:54:56.659Z,99679.40
2024-04-24T00:57:27.479Z,99679.60
2024-04-24T00:59:58.083Z,99676.20
2024-04-24T01:02:29.527Z,99673.40
2024-04-24T01:05:00.265Z,99668.20
2024-04-24T01:07:30.940Z,99671.40
2024-04-24T01:10:01.663Z,99672.00
2024-04-24T01:12:32.613Z,99673.40
2024-04-24T01:15:03.273Z,99668.80
2024-04-24T01:17:34.648Z,99661.00
2024-04-24T01:20:07.366Z,99663.40
2024-04-24T01:22:52.455Z,99662.60
2024-04-24T01:25:28.172Z,99660.40
2024-04-24T01:27:58.804Z,99658.40
2024-04-24T01:30:29.567Z,99654.80
2024-04-24T01:33:00.412Z,99651.40
2024-04-24T01:35:31.251Z,99651.60
2024-04-24T01:38:01.898Z,99647.60
2024-04-24T01:40:32.672Z,99645.80
2024-04-24T01:43:03.304Z,99644.60
2024-04-24T01:45:34.015Z,99640.20
2024-04-24T01:48:05.020Z,99638.00
2024-04-24T01:50:35.956Z,99632.60
2024-04-24T01:53:07.073Z,99633.20
2024-04-24T01:55:37.745Z,99625.60
2024-04-24T01:58:08.868Z,99632.00
2024-04-24T02:00:39.644Z,99620.80
2024-04-24T02:03:10.404Z,99622.00
2024-04-24T02:05:41.182Z,99617.60
2024-04-24T02:08:11.835Z,99611.80
2024-04-24T02:10:42.590Z,99605.60
2024-04-24T02:13:13.239Z,99600.60
2024-04-24T02:15:43.958Z,99599.00
2024-04-24T02:18:14.800Z,99597.60
2024-04-24T02:20:45.465Z,99590.00
2024-04-24T02:23:21.618Z,99584.60
2024-04-24T02:25:52.249Z,99585.20
2024-04-24T02:28:23.000Z,99581.60
2024-04-24T02:30:53.568Z,99580.80
2024-04-24T02:33:24.301Z,99576.80
2024-04-24T02:35:54.986Z,99576.00
2024-04-24T02:38:25.700Z,99573.60
2024-04-24T02:40:56.390Z,99570.00
2024-04-24T02:43:27.048Z,99569.60
2024-04-24T02:45:57.703Z,99579.40
2024-04-24T02:48:28.358Z,99567.20
2024-04-24T02:50:59.054Z,99565.00
2024-04-24T02:53:29.659Z,99557.80
2024-04-24T02:56:00.412Z,99560.20
2024-04-24T02:58:31.315Z,99554.80
2024-04-24T03:01:02.132Z,99554.00
2024-04-24T03:03:32.779Z,99549.00
2024-04-24T03:06:03.376Z,99550.40
2024-04-24T03:08:34.003Z,99551.00
2024-04-24T03:11:04.826Z,99550.40
2024-04-24T03:13:35.573Z,99545.40
2024-04-24T03:16:06.626Z,99547.60
2024-04-24T03:18:37.437Z,99544.80
2024-04-24T03:21:08.458Z,99538.40
2024-04-24T03:23:40.247Z,99537.40
2024-04-24T03:26:11.365Z,99528.00
2024-04-24T03:28:42.791Z,99527.20
2024-04-24T03:31:13.493Z,99524.20
2024-04-24T03:33:44.199Z,99520.40
2024-04-24T03:36:14.905Z,99523.80
2024-04-24T03:38:46.150Z,99525.60
2024-04-24T03:41:17.143Z,99524.20
2024-04-24T03:43:47.961Z,99519.40
2024-04-24T03:46:18.753Z,99517.20
2024-04-24T03:48:49.578Z,99512.80
2024-04-24T03:51:20.315Z,99511.00
2024-04-24T03:53:50.965Z,99507.80
2024-04-24T03:56:21.980Z,99506.00
2024-04-24T03:58:52.829Z,99507.00
2024-04-24T04:01:26.505Z,99510.60
2024-04-24T04:03:59.311Z,99516.00
2024-04-24T04:06:31.442Z,99514.80
2024-04-24T04:09:02.218Z,99513.20
2024-04-24T04:11:33.299Z,99513.40
2024-04-24T04:14:04.202Z,99510.60
2024-04-24T04:16:35.184Z,99512.60
2024-04-24T04:19:06.070Z,99509.60
2024-04-24T04:21:36.864Z,99511.00
2024-04-24T04:24:08.362Z,99510.00
2024-04-24T04:26:39.039Z,99509.80
2024-04-24T04:29:09.938Z,99505.60
2024-04-24T04:31:40.829Z,99498.20
2024-04-24T04:34:11.508Z,99494.20
2024-04-24T04:36:42.270Z,99492.60
2024-04-24T04:39:13.681Z,99489.40
2024-04-24T04:41:44.487Z,99487.60
2024-04-24T04:44:15.224Z,99487.60
2024-04-24T04:46:45.934Z,99481.40
2024-04-24T04:49:16.561Z,99487.00
2024-04-24T04:51:47.251Z,99491.40
2024-04-24T04:54:17.818Z,99490.00
2024-04-24T04:56:50.982Z,99484.80
2024-04-24T04:59:22.368Z,99484.40
2024-04-24T05:01:54.246Z,99486.20
2024-04-24T05:04:26.085Z,99474.80
2024-04-24T05:06:56.803Z,99475.20
2024-04-24T05:09:27.666Z,99474.80
2024-04-24T05:11:58.563Z,99474.40
2024-04-24T05:14:29.426Z,99473.20
2024-04-24T05:17:00.296Z,99473.80
2024-04-24T05:19:31.116Z,99469.20
2024-04-24T05:22:01.952Z,99467.40
2024-04-24T05:24:32.634Z,99469.60
2024-04-24T05:27:21.062Z,99467.20
2024-04-24T05:29:51.782Z,99460.00
2024-04-24T05:32:22.529Z,99456.00
2024-04-24T05:34:53.422Z,99457.40
2024-04-24T05:37:24.593Z,99448.60
2024-04-24T05:39:55.338Z,99450.60
2024-04-24T05:42:26.112Z,99446.60
2024-04-24T05:44:56.923Z,99448.40
2024-04-24T05:47:27.917Z,99445.40
2024-04-24T05:49:58.698Z,99449.20
2024-04-24T05:52:29.432Z,99450.40
2024-04-24T05:55:00.064Z,99445.80
2024-04-24T05:57:30.897Z,99452.20
2024-04-24T06:00:01.622Z,99450.20
2024-04-24T06:02:38.771Z,99443.60
2024-04-24T06:05:10.185Z,99444.00
2024-04-24T06:07:42.149Z,99437.60
2024-04-24T06:10:13.023Z,99435.60
2024-04-24T06:12:43.741Z,99434.20
2024-04-24T06:15:14.478Z,99435.20
2024-04-24T06:17:45.960Z,99434.40
2024-04-24T06:20:17.959Z,99433.00
2024-04-24T06:22:48.854Z,99433.80
2024-04-24T06:25:19.675Z,99431.60
2024-04-24T06:27:50.394Z,99431.00
2024-04-24T06:30:21.180Z,99428.80
2024-04-24T06:32:52.191Z,99430.60
2024-04-24T06:35:26.744Z,99426.80
2024-04-24T06:37:58.452Z,99427.00
2024-04-24T06:40:29.240Z,99429.20
2024-04-24T06:42:59.908Z,99424.40
2024-04-24T06:45:31.764Z,99425.80
2024-04-24T06:48:02.634Z,99418.40
2024-04-24T06:50:34.453Z,99419.00
2024-04-24T06:53:05.562Z,99414.60
2024-04-24T06:55:37.785Z,99411.20
2024-04-24T06:58:09.181Z,99410.40
2024-04-24T07:00:39.972Z,99407.40
2024-04-24T07:03:10.690Z,99402.20
2024-04-24T07:05:41.458Z,99396.00
2024-04-24T07:08:13.004Z,99395.40
2024-04-24T07:10:43.819Z,99390.60
2024-04-24T07:13:14.576Z,99388.20
2024-04-24T07:15:45.459Z,99378.00
2024-04-24T07:18:16.287Z,99383.80
2024-04-24T07:20:47.127Z,99380.80
2024-04-24T07:23:17.966Z,99375.60
2024-04-24T07:25:48.630Z,99376.20
2024-04-24T07:28:19.282Z,99374.20
2024-04-24T07:30:50.246Z,99372.80
2024-04-24T07:33:21.732Z,99379.00
2024-04-24T07:35:52.957Z,99371.00
2024-04-24T07:38:23.884Z,99373.60
2024-04-24T07:40:55.032Z,99376.80
2024-04-24T07:43:25.610Z,99379.00
2024-04-24T07:45:56.211Z,99377.80
2024-04-24T07:48:26.895Z,99375.20
2024-04-24T07:50:57.687Z,99372.60
2024-04-24T07:53:28.433Z,99366.00
2024-04-24T07:55:59.259Z,99364.00
2024-04-24T07:58:33.394Z,99365.80
2024-04-24T08:01:04.180Z,99361.40
2024-04-24T08:03:35.800Z,99360.20
2024-04-24T08:06:08.827Z,99361.60
2024-04-24T08:08:41.762Z,99355.40
2024-04-24T08:11:12.692Z,99352.20
2024-04-24T08:13:44.269Z,99348.00
2024-04-24T08:16:15.034Z,99347.00
2024-04-24T08:18:49.987Z,99347.20
2024-04-24T08:21:20.907Z,99346.80
2024-04-24T08:23:51.817Z,99346.00
2024-04-24T08:26:22.735Z,99348.20
2024-04-24T08:28:54.120Z,99348.00
2024-04-24T08:31:24.839Z,99349.40
2024-04-24T08:33:56.400Z,99346.20
2024-04-24T08:36:27.085Z,99344.00
2024-04-24T08:38:58.085Z,99349.40
2024-04-24T08:41:34.890Z,99345.40
2024-04-24T08:44:05.987Z,99344.60
2024-04-24T08:46:36.955Z,99340.60
2024-04-24T08:49:08.738Z,99344.00
2024-04-24T08:51:41.011Z,99339.20
2024-04-24T08:54:15.563Z,99339.40
2024-04-24T08:56:48.856Z,99340.80
2024-04-24T08:59:23.818Z,99329.60
2024-04-24T09:02:00.136Z,99335.40
2024-04-24T09:04:31.516Z,99330.00
2024-04-24T09:07:02.703Z,99328.80
2024-04-24T09:09:34.247Z,99327.20
2024-04-24T09:12:07.982Z,99326.80
2024-04-24T09:14:39.095Z,99318.60
2024-04-24T09:17:10.061Z,99317.40
2024-04-24T09:19:41.313Z,99310.60
2024-04-24T09:22:12.145Z,99313.20
2024-04-24T09:24:46.490Z,99309.00
2024-04-24T09:27:20.519Z,99310.40
2024-04-24T09:29:51.152Z,99306.40
2024-04-24T09:32:22.287Z,99315.80
2024-04-24T09:34:53.134Z,99317.40
2024-04-24T09:37:25.188Z,99314.80
2024-04-24T09:39:56.082Z,99316.00
2024-04-24T09:42:26.899Z,99314.00
2024-04-24T09:44:57.808Z,99306.80
2024-04-24T09:47:29.629Z,99307.80
2024-04-24T09:50:00.448Z,99299.80
2024-04-24T09:52:31.137Z,99304.80
2024-04-24T09:55:01.896Z,99302.40
2024-04-24T09:57:35.319Z,99303.80
2024-04-24T10:00:07.876Z,99304.80
2024-04-24T10:02:48.356Z,99300.80
2024-04-24T10:05:22.907Z,99292.20
2024-04-24T10:07:57.455Z,99289.60
2024-04-24T10:10:34.914Z,99288.60
2024-04-24T10:13:07.578Z,99291.80
2024-04-24T10:15:42.283Z,99291.60
2024-04-24T10:18:13.157Z,99291.60
2024-04-24T10:20:45.050Z,99291.80
2024-04-24T10:23:17.838Z,99289.00
2024-04-24T10:25:48.986Z,99287.60
2024-04-24T10:28:21.834Z,99285.80
2024-04-24T10:30:53.721Z,99285.00
2024-04-24T10:33:25.761Z,99284.80
2024-04-24T10:35:57.224Z,99282.60
2024-04-24T10:38:32.619Z,99283.20
2024-04-24T10:41:03.485Z,99276.20
2024-04-24T10:43:35.075Z,99280.60
2024-04-24T10:46:07.938Z,99277.20
2024-04-24T10:48:54.459Z,99276.80
2024-04-24T10:51:32.816Z,99276.60
2024-04-24T10:54:13.289Z,99275.60
2024-04-24T10:56:44.680Z,99273.80
2024-04-24T10:59:15.854Z,99269.40
2024-04-24T11:01:52.890Z,99266.60
2024-04-24T11:04:26.726Z,99263.20
2024-04-24T11:06:58.570Z,99267.20
2024-04-24T11:09:30.112Z,99267.80
2024-04-24T11:12:01.265Z,99266.40
2024-04-24T11:14:41.585Z,99271.60
2024-04-24T11:17:12.570Z,99267.80
2024-04-24T11:19:43.281Z,99266.40
2024-04-24T11:22:14.006Z,99261.20
2024-04-24T11:24:45.087Z,99262.80
2024-04-24T11:27:15.853Z,99261.40
2024-04-24T11:29:46.465Z,99258.60
2024-04-24T11:32:17.510Z,99256.60
2024-04-24T11:34:48.902Z,99260.80
2024-04-24T11:37:20.060Z,99261.20
2024-04-24T11:39:50.636Z,99253.00
2024-04-24T11:42:21.525Z,99259.60
2024-04-24T11:44:52.310Z,99257.80
2024-04-24T11:47:23.238Z,99262.60
2024-04-24T11:49:55.038Z,99253.80
2024-04-24T11:52:25.889Z,99252.00
2024-04-24T11:54:56.644Z,99246.80
2024-04-24T11:57:27.621Z,99245.00
2024-04-24T12:00:01.997Z,99240.00
2024-04-24T12:02:35.637Z,99232.60
2024-04-24T12:05:07.728Z,99235.20
2024-04-24T12:07:43.789Z,99233.40
2024-04-24T12:10:23.898Z,99232.00
2024-04-24T12:12:56.311Z,99228.00
2024-04-24T12:15:26.928Z,99231.60
2024-04-24T12:17:57.732Z,99230.80
2024-04-24T12:20:28.484Z,99229.40
2024-04-24T12:22:59.323Z,99226.80
2024-04-24T12:25:29.997Z,99222.00
2024-04-24T12:28:00.813Z,99221.80
2024-04-24T12:30:31.698Z,99222.20
2024-04-24T12:33:02.624Z,99219.40
2024-04-24T12:35:33.434Z,99216.60
2024-04-24T12:38:04.390Z,99218.40
2024-04-24T12:40:37.570Z,99214.00
2024-04-24T12:43:08.678Z,99211.80
2024-04-24T12:45:39.267Z,99217.40
2024-04-24T12:48:13.059Z,99217.60
2024-04-24T12:50:43.874Z,99214.80
2024-04-24T12:53:15.456Z,99203.80
2024-04-24T12:55:46.429Z,99207.40
2024-04-24T12:58:17.748Z,99207.60
2024-04-24T13:00:48.508Z,99208.00
2024-04-24T13:03:20.562Z,99201.80
2024-04-24T13:05:51.275Z,99205.80
2024-04-24T13:08:22.017Z,99207.20
2024-04-24T13:10:52.767Z,99203.40
2024-04-24T13:13:23.775Z,99205.40
2024-04-24T13:15:54.731Z,99209.40
2024-04-24T13:20:58.625Z,99203.20
2024-04-24T13:23:29.324Z,99203.80
2024-04-24T13:26:00.044Z,99198.20
2024-04-24T13:28:33.801Z,99202.40
2024-04-24T13:31:07.890Z,99201.00
2024-04-24T13:33:38.936Z,99201.00
2024-04-24T13:36:10.107Z,99195.80
2024-04-24T13:38:40.877Z,99186.60
2024-04-24T13:41:12.813Z,99189.00
2024-04-24T13:43:44.245Z,99189.80
2024-04-24T13:46:15.445Z,99187.60
2024-04-24T13:48:46.331Z,99188.40
2024-04-24T13:51:17.265Z,99192.60
2024-04-24T13:53:47.960Z,99189.80
2024-04-24T13:56:18.782Z,99188.20
2024-04-24T13:58:49.727Z,99188.00
2024-04-24T14:01:20.419Z,99189.80
2024-04-24T14:03:51.334Z,99190.20
2024-04-24T14:06:22.290Z,99189.20
2024-04-24T14:08:54.119Z,99189.20
2024-04-24T14:11:26.099Z,99182.80
2024-04-24T14:13:57.001Z,99182.80
2024-04-24T14:16:27.920Z,99175.80
2024-04-24T14:18:58.618Z,99178.40
2024-04-24T14:21:29.218Z,99172.20
2024-04-24T14:23:59.951Z,99180.20
2024-04-24T14:26:30.706Z,99177.00
2024-04-24T14:29:01.536Z,99175.00
2024-04-24T14:31:32.540Z,99171.00
2024-04-24T14:34:03.161Z,99170.20
2024-04-24T14:36:33.975Z,99164.60
2024-04-24T14:39:04.687Z,99164.80
2024-04-24T14:41:35.548Z,99164.60
2024-04-24T14:44:06.558Z,99159.80
2024-04-24T14:46:37.761Z,99161.40
2024-04-24T14:49:08.460Z,99160.80
2024-04-24T14:51:39.249Z,99162.00
2024-04-24T14:54:09.980Z,99161.60
2024-04-24T14:56:40.617Z,99158.00
2024-04-24T14:59:11.441Z,99160.00
2024-04-24T15:01:42.348Z,99157.80
2024-04-24T15:04:13.122Z,99155.60
2024-04-24T15:07:00.494Z,99155.40
2024-04-24T15:09:34.520Z,99153.40
2024-04-24T15:12:05.707Z,99153.80
2024-04-24T15:14:36.551Z,99153.20
2024-04-24T15:17:07.849Z,99153.40
2024-04-24T15:19:40.891Z,99148.40
2024-04-24T15:22:13.497Z,99151.40
2024-04-24T15:24:45.461Z,99155.20
2024-04-24T15:27:16.229Z,99150.60
2024-04-24T15:29:46.860Z,99149.00
2024-04-24T15:32:17.554Z,99145.40
2024-04-24T15:34:48.344Z,99149.00
2024-04-24T15:37:21.197Z,99143.80
2024-04-24T15:39:51.898Z,99148.20
2024-04-24T15:42:22.590Z,99147.00
2024-04-24T15:44:53.379Z,99148.00
2024-04-24T15:47:24.152Z,99145.00
2024-04-24T15:49:55.049Z,99142.40
2024-04-24T15:52:25.639Z,99141.20
2024-04-24T15:54:56.327Z,99136.60
2024-04-24T15:57:26.988Z,99135.40
2024-04-24T15:59:57.726Z,99129.20
2024-04-24T16:02:29.197Z,99134.80
2024-04-24T16:05:00.312Z,99131.40
2024-04-24T16:07:31.316Z,99129.60
2024-04-24T16:10:02.395Z,99124.80
2024-04-24T16:12:33.127Z,99128.40
2024-04-24T16:15:03.794Z,99130.00
2024-04-24T16:17:37.034Z,99130.20
2024-04-24T16:20:14.089Z,99132.40
2024-04-24T16:22:45.105Z,99134.00
2024-04-24T16:25:15.988Z,99130.00
2024-04-24T16:27:46.758Z,99127.20
2024-04-24T16:30:17.848Z,99127.00
2024-04-24T16:32:50.421Z,99125.00
2024-04-24T16:35:21.265Z,99126.00
2024-04-24T16:37:52.006Z,99127.80
2024-04-24T16:40:22.577Z,99123.60
2024-04-24T16:42:53.260Z,99129.60
2024-04-24T16:45:23.844Z,99127.00
2024-04-24T16:47:55.490Z,99124.80
2024-04-24T16:50:26.445Z,99124.60
2024-04-24T16:52:57.240Z,99121.60
2024-04-24T16:55:28.169Z,99118.60
2024-04-24T16:57:58.980Z,99122.20
2024-04-24T17:00:29.631Z,99126.20
2024-04-24T17:03:00.546Z,99130.40
2024-04-24T17:05:31.504Z,99128.20
2024-04-24T17:08:03.423Z,99131.80
2024-04-24T17:10:34.416Z,99137.40
2024-04-24T17:13:05.360Z,99136.20
2024-04-24T17:15:36.353Z,99134.80
2024-04-24T17:18:07.933Z,99135.00
2024-04-24T17:20:40.945Z,99141.00
2024-04-24T17:23:11.736Z,99143.60
2024-04-24T17:25:45.467Z,99142.20
2024-04-24T17:28:16.168Z,99144.80
2024-04-24T17:30:46.864Z,99148.00
2024-04-24T17:33:17.691Z,99150.60
2024-04-24T17:35:50.460Z,99149.60
2024-04-24T17:38:21.575Z,99150.00
2024-04-24T17:40:52.399Z,99147.80
2024-04-24T17:43:26.524Z,99148.60
2024-04-24T17:45:57.578Z,99152.20
2024-04-24T17:48:29.672Z,99151.80
2024-04-24T17:51:01.271Z,99144.00
2024-04-24T17:53:32.129Z,99151.20
2024-04-24T17:56:03.262Z,99149.20
2024-04-24T17:58:33.868Z,99150.80
2024-04-24T18:01:04.981Z,99149.80
2024-04-24T18:03:35.866Z,99149.60
2024-04-24T18:06:07.134Z,99154.20
2024-04-24T18:08:37.890Z,99159.40
2024-04-24T18:11:08.969Z,99163.20
2024-04-24T18:13:39.815Z,99166.80
2024-04-24T18:16:10.752Z,99172.40
2024-04-24T18:18:41.564Z,99175.00
2024-04-24T18:21:12.472Z,99175.60
2024-04-24T18:23:43.031Z,99181.40
2024-04-24T18:26:13.817Z,99177.60
2024-04-24T18:28:44.671Z,99178.80
2024-04-24T18:31:15.552Z,99186.00
2024-04-24T18:33:46.424Z,99183.60
2024-04-24T18:36:17.341Z,99186.20
2024-04-24T18:38:48.187Z,99188.00
2024-04-24T18:41:19.983Z,99188.20
2024-04-24T18:43:50.690Z,99190.40
2024-04-24T18:46:21.412Z,99196.00
2024-04-24T18:48:52.404Z,99197.20
2024-04-24T18:51:23.374Z,99206.20
2024-04-24T18:53:54.532Z,99206.60
2024-04-24T18:56:25.539Z,99212.00
2024-04-24T18:58:56.364Z,99214.20
2024-04-24T19:01:27.253Z,99209.80
2024-04-24T19:03:58.030Z,99213.60
2024-04-24T19:06:33.405Z,99209.40
2024-04-24T19:09:04.797Z,99211.40
2024-04-24T19:11:35.562Z,99213.40
2024-04-24T19:14:06.587Z,99210.80
2024-04-24T19:16:37.835Z,99217.00
2024-04-24T19:19:08.720Z,99220.80
2024-04-24T19:21:39.568Z,99221.20
2024-04-24T19:24:10.877Z,99216.80
2024-04-24T19:26:41.757Z,99220.60
2024-04-24T19:29:12.600Z,99218.60
2024-04-24T19:31:43.978Z,99209.80
2024-04-24T19:34:14.711Z,99214.80
2024-04-24T19:36:45.457Z,99215.20
2024-04-24T19:39:16.308Z,99219.40
2024-04-24T19:41:47.894Z,99219.80
2024-04-24T19:44:18.653Z,99217.60
2024-04-24T19:46:49.785Z,99218.00
2024-04-24T19:49:20.795Z,99219.80
2024-04-24T19:51:51.386Z,99214.80
2024-04-24T19:54:22.163Z,99213.20
2024-04-24T19:56:53.856Z,99217.80
2024-04-24T19:59:24.566Z,99216.00
2024-04-24T20:01:56.210Z,99211.60
2024-04-24T20:04:27.258Z,99215.80
2024-04-24T20:06:58.054Z,99216.80
2024-04-24T20:09:29.055Z,99208.00
2024-04-24T20:11:59.885Z,99211.20
2024-04-24T20:14:30.707Z,99202.60
2024-04-24T20:17:01.675Z,99202.60
2024-04-24T20:19:34.183Z,99203.00
2024-04-24T20:22:08.193Z,99197.80
2024-04-24T20:24:38.927Z,99198.80
2024-04-24T20:27:13.878Z,99204.60
2024-04-24T20:29:44.612Z,99211.40
2024-04-24T20:32:16.341Z,99208.20
2024-04-24T20:34:47.194Z,99206.40
2024-04-24T20:37:17.961Z,99210.20
2024-04-24T20:39:48.963Z,99213.20
2024-04-24T20:42:19.695Z,99213.00
2024-04-24T20:44:50.547Z,99212.00
2024-04-24T20:47:21.626Z,99211.40
2024-04-24T20:49:52.386Z,99206.20
2024-04-24T20:52:23.077Z,99203.20
2024-04-24T20:54:53.904Z,99205.80
2024-04-24T20:57:24.726Z,99208.00
2024-04-24T20:59:57.834Z,99208.40
2024-04-24T21:02:28.999Z,99209.40
2024-04-24T21:04:59.865Z,99210.20
2024-04-24T21:07:30.656Z,99210.60
2024-04-24T21:10:01.429Z,99206.60
2024-04-24T21:12:32.334Z,99206.00
2024-04-24T21:15:04.229Z,99204.20
2024-04-24T21:17:34.969Z,99203.80
2024-04-24T21:20:06.297Z,99200.20
2024-04-24T21:22:37.140Z,99201.60
2024-04-24T21:25:08.820Z,99204.60
2024-04-24T21:27:39.701Z,99206.20
2024-04-24T21:30:11.876Z,99200.00
2024-04-24T21:32:42.714Z,99203.60
2024-04-24T21:35:13.520Z,99202.80
2024-04-24T21:37:44.350Z,99197.40
2024-04-24T21:40:15.249Z,99199.00
2024-04-24T21:42:45.999Z,99194.20
2024-04-24T21:45:16.939Z,99197.00
2024-04-24T21:47:47.708Z,99193.40
2024-04-24T21:50:18.544Z,99193.40
2024-04-24T21:52:49.435Z,99193.80
2024-04-24T21:55:20.078Z,99190.20
2024-04-24T21:57:50.708Z,99190.00
2024-04-24T22:00:21.560Z,99194.00
2024-04-24T22:02:54.292Z,99201.00
2024-04-24T22:05:24.992Z,99194.00
2024-04-24T22:07:55.702Z,99194.40
2024-04-24T22:10:26.437Z,99191.80
2024-04-24T22:13:01.277Z,99184.80
2024-04-24T22:15:34.686Z,99182.40
2024-04-24T22:18:13.565Z,99184.20
2024-04-24T22:20:44.527Z,99185.00
2024-04-24T22:23:15.411Z,99181.20
2024-04-24T22:25:46.152Z,99183.20
2024-04-24T22:28:16.783Z,99179.40
2024-04-24T22:30:47.897Z,99176.80
2024-04-24T22:33:18.610Z,99179.40
2024-04-24T22:35:49.303Z,99169.60
2024-04-24T22:38:20.081Z,99169.80
2024-04-24T22:40:50.720Z,99169.00
2024-04-24T22:43:22.182Z,99170.20
2024-04-24T22:45:52.939Z,99171.20
2024-04-24T22:48:23.740Z,99170.40
2024-04-24T22:50:54.582Z,99169.80
2024-04-24T22:53:25.469Z,99173.80
2024-04-24T22:55:56.087Z,99172.20
2024-04-24T22:58:26.775Z,99173.00
2024-04-24T23:00:57.685Z,99173.00
2024-04-24T23:03:28.408Z,99171.60
2024-04-24T23:05:59.263Z,99174.60
2024-04-24T23:08:30.114Z,99176.80
2024-04-24T23:11:00.782Z,99169.80
2024-04-24T23:13:31.511Z,99172.40
2024-04-24T23:16:02.472Z,99174.80
2024-04-24T23:18:36.331Z,99174.40
2024-04-24T23:21:07.403Z,99170.80
2024-04-24T23:23:38.190Z,99172.60
2024-04-24T23:26:08.873Z,99171.20
2024-04-24T23:28:39.794Z,99170.80
2024-04-24T23:31:10.588Z,99164.20
2024-04-24T23:33:41.268Z,99163.60
2024-04-24T23:36:12.197Z,99158.40
2024-04-24T23:38:42.944Z,99158.40
2024-04-24T23:41:16.452Z,99154.40
2024-04-24T23:43:47.691Z,99155.40
2024-04-24T23:46:20.259Z,99155.60
2024-04-24T23:48:52.468Z,99149.80
2024-04-24T23:51:23.091Z,99149.80
2024-04-24T23:53:54.549Z,99146.80
2024-04-24T23:56:25.999Z,99145.60
2024-04-24T23:58:56.676Z,99145.00
